Time;durP1;ratioP1;P1;durP2;ratioP2;P2;SDS_P1;SDS_P2;PMS_P1;PMS_P2;Temp;Humidity;BMP_temperature;BMP_pressure;BME280_temperature;BME280_humidity;BME280_pressure;Samples;Min_cycle;Max_cycle;Signal;HPM_P1;HPM_P2
2022/01/26 00:07:52;;;;;;;116.05;35.65;;;3.70;99.90;;;;;;5088593;28;20093;-78
2022/01/26 00:10:18;;;;;;;110.60;34.40;;;3.70;99.90;;;;;;5088292;28;20051;-78
2022/01/26 00:12:43;;;;;;;114.00;36.28;;;3.70;99.90;;;;;;5087996;28;20036;-78
2022/01/26 00:15:10;;;;;;;105.57;35.70;;;3.70;99.90;;;;;;5088071;28;20051;-78
2022/01/26 00:17:36;;;;;;;115.25;38.22;;;3.70;99.90;;;;;;5088214;28;20044;-78
2022/01/26 00:20:16;;;;;;;108.18;35.72;;;3.70;99.90;;;;;;5089517;28;20036;-78
2022/01/26 00:28:06;;;;;;;107.43;35.70;;;3.60;99.90;;;;;;5087930;28;20221;-78
2022/01/26 00:38:41;;;;;;;105.35;36.17;;;3.60;99.90;;;;;;5088143;28;20044;-78
2022/01/26 00:41:16;;;;;;;104.03;35.75;;;3.60;99.90;;;;;;5087965;28;20075;-78
2022/01/26 00:43:50;;;;;;;97.03;35.35;;;3.60;99.90;;;;;;5070585;28;20055;-78
2022/01/26 00:46:17;;;;;;;103.50;36.20;;;3.50;99.90;;;;;;5087914;28;20032;-78
2022/01/26 00:48:43;;;;;;;103.82;34.65;;;3.50;99.90;;;;;;5066076;28;20076;-78
2022/01/26 00:51:14;;;;;;;105.90;34.08;;;3.60;99.90;;;;;;5067422;28;20059;-78
2022/01/26 00:53:46;;;;;;;104.00;34.70;;;3.50;99.90;;;;;;5069034;28;20049;-78
2022/01/26 00:56:12;;;;;;;105.22;34.10;;;3.60;99.90;;;;;;5067429;28;20556;-78
2022/01/26 00:58:38;;;;;;;104.15;35.83;;;3.50;99.90;;;;;;5071081;28;20145;-78
2022/01/26 01:01:05;;;;;;;109.90;35.60;;;3.50;99.90;;;;;;5071597;28;20072;-77
2022/01/26 01:03:34;;;;;;;118.47;37.42;;;3.50;99.90;;;;;;5071187;28;20045;-78
2022/01/26 01:06:13;;;;;;;114.95;35.45;;;3.50;99.90;;;;;;5053852;28;20445;-78
2022/01/26 01:08:40;;;;;;;116.70;37.53;;;3.50;99.90;;;;;;5070934;28;20499;-78
2022/01/26 01:11:07;;;;;;;103.22;35.17;;;3.50;99.90;;;;;;5072218;28;20044;-78
2022/01/26 01:13:36;;;;;;;104.20;35.72;;;3.50;99.90;;;;;;5071257;28;20052;-78
2022/01/26 01:16:04;;;;;;;105.78;34.53;;;3.50;99.90;;;;;;5071272;28;20191;-78
2022/01/26 01:18:44;;;;;;;105.25;35.17;;;3.50;99.90;;;;;;5054649;28;20036;-78
2022/01/26 01:31:52;;;;;;;107.20;35.38;;;3.50;99.90;;;;;;5071148;28;20056;-78
2022/01/26 01:34:26;;;;;;;131.50;48.38;;;3.50;99.90;;;;;;5069494;28;20423;-78
2022/01/26 01:36:53;;;;;;;116.35;40.13;;;3.50;99.90;;;;;;5070837;28;20048;-77
2022/01/26 01:39:21;;;;;;;110.82;36.65;;;3.50;99.90;;;;;;5053793;28;20052;-78
2022/01/26 01:41:49;;;;;;;106.85;36.42;;;3.50;99.90;;;;;;5070518;28;20522;-78
2022/01/26 01:44:15;;;;;;;106.53;37.63;;;3.50;99.90;;;;;;5070400;28;20088;-78
2022/01/26 01:46:42;;;;;;;109.05;38.35;;;3.40;99.90;;;;;;5072140;28;20422;-78
2022/01/26 01:49:10;;;;;;;110.63;36.53;;;3.50;99.90;;;;;;5070322;28;20075;-78
2022/01/26 01:51:40;;;;;;;111.47;38.33;;;3.50;99.90;;;;;;5070093;28;20037;-78
2022/01/26 01:54:16;;;;;;;102.60;37.58;;;3.50;99.90;;;;;;5070489;28;20394;-78
2022/01/26 01:56:45;;;;;;;105.15;36.55;;;3.50;99.90;;;;;;5071977;28;20775;-78
2022/01/26 01:59:11;;;;;;;120.07;39.90;;;3.50;99.90;;;;;;5070468;28;20058;-78
2022/01/26 02:01:37;;;;;;;110.07;35.92;;;3.50;99.90;;;;;;5070610;28;20044;-78
2022/01/26 02:04:03;;;;;;;103.68;36.08;;;3.50;99.90;;;;;;5069794;28;20044;-78
2022/01/26 02:06:29;;;;;;;114.78;37.72;;;3.50;99.90;;;;;;5070637;28;20371;-78
2022/01/26 02:08:54;;;;;;;115.05;37.45;;;3.50;99.90;;;;;;5070331;28;20506;-78
2022/01/26 02:11:20;;;;;;;111.57;37.90;;;3.40;99.90;;;;;;5070959;28;20040;-78
2022/01/26 02:16:39;;;;;;;108.05;38.85;;;3.50;99.90;;;;;;5071251;28;20054;-78
2022/01/26 02:49:31;;;;;;;103.53;36.17;;;3.40;99.90;;;;;;5070010;28;20426;-78
2022/01/26 02:52:48;;;;;;;102.93;35.25;;;3.40;99.90;;;;;;5053237;28;20102;-78
2022/01/26 03:03:37;;;;;;;94.60;34.40;;;3.40;99.90;;;;;;5069631;28;20048;-78
2022/01/26 03:06:14;;;;;;;94.63;31.50;;;3.40;99.90;;;;;;5069136;28;20079;-78
2022/01/26 03:08:42;;;;;;;100.18;36.80;;;3.40;99.90;;;;;;5069272;28;20048;-78
2022/01/26 03:11:11;;;;;;;96.50;35.50;;;3.40;99.90;;;;;;5068583;28;20123;-78
2022/01/26 03:13:42;;;;;;;95.38;33.25;;;3.40;99.90;;;;;;5068919;28;20125;-78
2022/01/26 03:16:14;;;;;;;92.63;33.03;;;3.40;99.90;;;;;;5068813;28;20494;-78
2022/01/26 03:21:08;;;;;;;101.78;36.55;;;3.40;99.90;;;;;;5068626;28;20049;-77
2022/01/26 03:29:16;;;;;;;100.60;35.83;;;3.40;99.90;;;;;;5065048;28;20119;-77
2022/01/26 03:34:19;;;;;;;98.65;35.65;;;3.40;99.90;;;;;;5088758;28;20088;-77
2022/01/26 03:39:13;;;;;;;101.50;36.15;;;3.40;99.90;;;;;;5089882;28;20048;-77
2022/01/26 03:44:11;;;;;;;107.93;37.25;;;3.40;99.90;;;;;;5088756;28;20380;-78
2022/01/26 03:46:37;;;;;;;115.55;37.95;;;3.40;99.90;;;;;;5088758;28;20040;-78
2022/01/26 03:49:05;;;;;;;105.43;37.60;;;3.40;99.90;;;;;;5089680;28;20741;-77
2022/01/26 03:51:31;;;;;;;97.95;33.53;;;3.40;99.90;;;;;;5071637;28;20048;-78
2022/01/26 03:53:57;;;;;;;109.32;38.95;;;3.40;99.90;;;;;;5088275;28;20048;-78
2022/01/26 03:56:23;;;;;;;116.85;40.28;;;3.40;99.90;;;;;;5088491;28;20482;-77
2022/01/26 03:58:48;;;;;;;113.78;40.97;;;3.40;99.90;;;;;;5089664;28;20101;-78
2022/01/26 04:01:14;;;;;;;111.65;40.25;;;3.40;99.90;;;;;;5088482;28;20044;-78
2022/01/26 04:03:39;;;;;;;105.22;35.92;;;3.40;99.90;;;;;;5070498;28;20062;-77
2022/01/26 04:06:05;;;;;;;108.05;37.63;;;3.40;99.90;;;;;;5068674;28;20048;-78
2022/01/26 04:08:33;;;;;;;112.90;35.50;;;3.40;99.90;;;;;;5069449;28;20056;-77
2022/01/26 04:13:24;;;;;;;;;;;3.30;99.90;;;;;;5068350;28;19967;-77
2022/01/26 04:15:49;;;;;;;100.82;36.10;;;3.30;99.90;;;;;;5069281;28;19925;-78
2022/01/26 04:18:20;;;;;;;114.30;38.08;;;3.40;99.90;;;;;;5068052;28;20044;-77
2022/01/26 04:20:50;;;;;;;100.32;35.35;;;3.30;99.90;;;;;;5069389;28;20117;-77
2022/01/26 04:23:34;;;;;;;106.93;35.13;;;3.30;99.90;;;;;;5069295;28;20514;-77
2022/01/26 04:26:00;;;;;;;95.15;33.20;;;3.30;99.90;;;;;;5067734;28;20051;-78
2022/01/26 04:28:39;;;;;;;98.63;34.53;;;3.30;99.90;;;;;;5067972;28;20052;-77
2022/01/26 04:31:05;;;;;;;102.18;35.95;;;3.30;99.90;;;;;;5068128;28;20051;-77
2022/01/26 04:33:33;;;;;;;94.22;31.65;;;3.30;99.90;;;;;;5071153;28;20040;-77
2022/01/26 04:35:59;;;;;;;91.88;33.67;;;3.30;99.90;;;;;;5071800;28;20136;-78
2022/01/26 04:38:35;;;;;;;97.03;33.72;;;3.30;99.90;;;;;;5071888;28;20127;-78
2022/01/26 04:43:30;;;;;;;99.63;35.65;;;3.30;99.90;;;;;;5071939;28;20086;-77
2022/01/26 04:45:55;;;;;;;98.18;35.92;;;3.20;99.90;;;;;;5071717;28;20052;-77
2022/01/26 04:48:23;;;;;;;89.07;31.98;;;3.20;99.90;;;;;;5071767;28;20045;-78
2022/01/26 04:50:49;;;;;;;89.78;31.95;;;3.20;99.90;;;;;;5071522;28;20053;-77
2022/01/26 04:53:15;;;;;;;83.72;30.90;;;3.30;99.90;;;;;;5072835;28;20051;-77
2022/01/26 04:55:40;;;;;;;84.85;31.85;;;3.20;99.90;;;;;;5072747;28;20076;-77
2022/01/26 04:58:06;;;;;;;89.20;31.25;;;3.30;99.90;;;;;;5072588;28;20043;-77
2022/01/26 05:00:31;;;;;;;86.13;31.50;;;3.20;99.90;;;;;;5071445;28;20130;-77
2022/01/26 05:02:57;;;;;;;83.57;31.50;;;3.20;99.90;;;;;;5071685;28;20048;-78
2022/01/26 05:05:23;;;;;;;81.53;30.83;;;3.30;99.90;;;;;;5072212;28;20037;-77
2022/01/26 05:07:48;;;;;;;79.93;30.15;;;3.20;99.90;;;;;;5072639;28;20506;-78
2022/01/26 05:10:14;;;;;;;85.93;31.95;;;3.20;99.90;;;;;;5072715;28;20097;-77
2022/01/26 05:12:40;;;;;;;80.13;31.25;;;3.20;99.90;;;;;;5071310;28;20045;-77
2022/01/26 05:15:06;;;;;;;83.38;31.95;;;3.20;99.90;;;;;;5071154;28;20143;-77
2022/01/26 05:17:32;;;;;;;76.40;30.15;;;3.20;99.90;;;;;;5071275;28;20530;-78
2022/01/26 05:20:00;;;;;;;75.25;29.55;;;3.20;99.90;;;;;;5071112;28;20414;-77
2022/01/26 05:22:26;;;;;;;79.35;29.77;;;3.20;99.90;;;;;;5071385;28;20459;-77
2022/01/26 05:24:53;;;;;;;82.80;30.00;;;3.30;99.90;;;;;;5072192;28;20185;-77
2022/01/26 05:27:19;;;;;;;93.10;41.87;;;3.20;99.90;;;;;;5068736;28;20415;-77
2022/01/26 05:29:45;;;;;;;91.03;40.58;;;3.20;99.90;;;;;;5068355;28;20411;-77
2022/01/26 05:32:11;;;;;;;80.13;31.75;;;3.20;99.90;;;;;;5069550;28;20050;-78
2022/01/26 05:34:36;;;;;;;77.47;31.20;;;3.20;99.90;;;;;;5069760;28;20053;-77
2022/01/26 05:37:02;;;;;;;70.93;27.05;;;3.20;99.90;;;;;;5070395;28;20044;-78
2022/01/26 05:39:28;;;;;;;73.55;28.90;;;3.20;99.90;;;;;;5052851;28;20047;-77
2022/01/26 05:41:53;;;;;;;77.43;30.40;;;3.20;99.90;;;;;;5069242;28;20043;-77
2022/01/26 05:44:19;;;;;;;78.47;29.13;;;3.20;99.90;;;;;;5069708;28;20097;-77
2022/01/26 05:46:48;;;;;;;78.22;30.70;;;3.20;99.90;;;;;;5069871;28;20490;-77
2022/01/26 05:49:16;;;;;;;86.50;30.30;;;3.20;99.90;;;;;;5069400;28;20136;-77
2022/01/26 05:51:45;;;;;;;72.22;27.90;;;3.20;99.90;;;;;;5052214;28;20056;-77
2022/01/26 05:54:11;;;;;;;70.65;28.98;;;3.20;99.90;;;;;;5069726;28;20448;-77
2022/01/26 05:56:37;;;;;;;73.60;26.65;;;3.20;99.90;;;;;;5069651;28;20106;-78
2022/01/26 05:59:03;;;;;;;75.38;29.27;;;3.20;99.90;;;;;;5052734;28;20040;-78
2022/01/26 06:01:29;;;;;;;76.93;28.45;;;3.20;99.90;;;;;;5069130;28;20052;-77
2022/01/26 06:03:55;;;;;;;74.88;29.15;;;3.20;99.90;;;;;;5052688;28;20044;-77
2022/01/26 06:06:21;;;;;;;78.13;30.05;;;3.20;99.90;;;;;;5068813;28;20135;-78
2022/01/26 06:08:47;;;;;;;73.90;28.75;;;3.20;99.90;;;;;;5069025;28;20125;-77
2022/01/26 06:11:13;;;;;;;77.78;29.77;;;3.20;99.90;;;;;;5069409;28;20495;-77
2022/01/26 06:13:38;;;;;;;87.85;40.50;;;3.20;99.90;;;;;;5051325;28;20814;-77
2022/01/26 06:16:04;;;;;;;88.87;40.67;;;3.10;99.90;;;;;;5067510;28;21263;-78
2022/01/26 06:18:30;;;;;;;81.25;33.58;;;3.10;99.90;;;;;;5070204;28;20040;-77
2022/01/26 06:20:56;;;;;;;80.45;32.50;;;3.10;99.90;;;;;;5069950;28;20036;-77
2022/01/26 06:23:25;;;;;;;77.32;30.83;;;3.20;99.90;;;;;;5068922;28;20044;-77
2022/01/26 06:25:56;;;;;;;71.80;27.73;;;3.10;99.90;;;;;;5030920;28;1077833;-78
2022/01/26 06:28:23;;;;;;;74.43;29.98;;;3.10;99.90;;;;;;5070980;28;20052;-77
2022/01/26 06:30:55;;;;;;;73.68;28.45;;;3.10;99.90;;;;;;5069180;28;20052;-77
2022/01/26 06:33:21;;;;;;;;;;;3.10;99.90;;;;;;5070643;28;20048;-78
2022/01/26 06:35:47;;;;;;;72.38;28.50;;;3.10;99.90;;;;;;5069401;28;20272;-77
2022/01/26 06:38:14;;;;;;;76.07;29.40;;;3.10;99.90;;;;;;5052968;28;20043;-77
2022/01/26 06:40:40;;;;;;;74.03;28.17;;;3.10;99.90;;;;;;5052481;28;20040;-78
2022/01/26 06:43:11;;;;;;;74.07;29.42;;;3.10;99.90;;;;;;5052634;28;20040;-78
2022/01/26 06:45:43;;;;;;;78.50;28.73;;;3.10;99.90;;;;;;5069201;28;20052;-78
2022/01/26 06:50:43;;;;;;;75.85;28.98;;;3.10;99.90;;;;;;5068948;28;20102;-77
2022/01/26 06:53:09;;;;;;;73.78;28.52;;;3.10;99.90;;;;;;5069535;28;20052;-77
2022/01/26 06:55:36;;;;;;;71.72;28.83;;;3.10;99.90;;;;;;5068531;28;20055;-78
2022/01/26 06:58:02;;;;;;;72.65;28.40;;;3.10;99.90;;;;;;5070114;28;20651;-77
2022/01/26 07:00:28;;;;;;;73.55;27.85;;;3.10;99.90;;;;;;5069177;28;20127;-78
2022/01/26 07:02:54;;;;;;;75.68;28.65;;;3.00;99.90;;;;;;5069428;28;20084;-77
2022/01/26 07:05:21;;;;;;;79.43;30.60;;;3.00;99.90;;;;;;5052108;28;20048;-78
2022/01/26 07:07:47;;;;;;;71.80;30.30;;;3.00;99.90;;;;;;5070429;28;20117;-77
2022/01/26 07:10:13;;;;;;;82.82;30.27;;;3.00;99.90;;;;;;5070285;28;20045;-77
2022/01/26 07:12:39;;;;;;;76.80;29.55;;;3.00;99.90;;;;;;5069028;28;20399;-77
2022/01/26 07:21:21;;;;;;;;;;;3.00;99.90;;;;;;5070781;28;20513;-77
2022/01/26 07:23:21;;;;;;;76.72;28.60;;;3.00;99.90;;;;;;5070072;28;19920;-78
2022/01/26 07:25:46;;;;;;;77.63;28.35;;;3.00;99.90;;;;;;5068672;28;20453;-78
2022/01/26 07:28:12;;;;;;;82.53;31.50;;;3.00;99.90;;;;;;5068643;28;20044;-77
2022/01/26 07:30:38;;;;;;;85.30;31.40;;;3.00;99.90;;;;;;5069917;28;20036;-77
2022/01/26 07:33:05;;;;;;;82.70;33.58;;;3.00;99.90;;;;;;5069709;28;20632;-78
2022/01/26 07:35:32;;;;;;;76.93;32.70;;;3.00;99.90;;;;;;5068420;28;20052;-78
2022/01/26 07:38:00;;;;;;;77.55;30.63;;;3.00;99.90;;;;;;5068675;28;20101;-77
2022/01/26 07:40:26;;;;;;;80.43;31.52;;;3.00;99.90;;;;;;5069959;28;20067;-77
2022/01/26 07:42:52;;;;;;;83.47;31.85;;;3.00;99.90;;;;;;5068146;28;20037;-78
2022/01/26 07:45:18;;;;;;;78.13;31.05;;;3.00;99.90;;;;;;5068295;28;20042;-78
2022/01/26 07:47:45;;;;;;;87.47;33.70;;;3.00;99.90;;;;;;5068320;28;20041;-77
2022/01/26 07:50:14;;;;;;;81.70;28.67;;;3.00;99.90;;;;;;5068451;28;20098;-77
2022/01/26 07:52:41;;;;;;;84.00;31.45;;;3.00;99.90;;;;;;5068358;28;20040;-78
2022/01/26 07:55:09;;;;;;;80.57;30.90;;;3.00;99.90;;;;;;5069075;28;20044;-77
2022/01/26 07:57:35;;;;;;;85.78;33.28;;;3.00;99.90;;;;;;5068229;28;20499;-78
2022/01/26 08:00:01;;;;;;;83.30;32.05;;;3.00;99.90;;;;;;5069386;28;20043;-77
2022/01/26 08:02:27;;;;;;;79.38;30.27;;;3.10;99.90;;;;;;5068603;28;20135;-78
2022/01/26 08:04:53;;;;;;;78.10;30.42;;;3.00;99.90;;;;;;5067740;28;20547;-78
2022/01/26 08:07:18;;;;;;;80.57;31.33;;;3.10;99.90;;;;;;5068476;28;20139;-77
2022/01/26 08:09:44;;;;;;;74.63;32.00;;;3.10;99.90;;;;;;5069414;28;20495;-78
2022/01/26 08:12:11;;;;;;;83.03;31.92;;;3.00;99.90;;;;;;5069238;28;20036;-78
2022/01/26 08:14:37;;;;;;;83.07;33.33;;;3.10;99.90;;;;;;5067716;28;20041;-78
2022/01/26 08:17:07;;;;;;;86.35;33.03;;;3.10;99.90;;;;;;5067995;28;20074;-78
2022/01/26 08:19:33;;;;;;;88.65;34.33;;;3.10;99.90;;;;;;5068054;28;20049;-78
2022/01/26 08:22:01;;;;;;;86.82;33.63;;;3.10;99.90;;;;;;5067936;28;20513;-78
2022/01/26 08:24:28;;;;;;;85.43;34.33;;;3.10;99.90;;;;;;5050538;28;20048;-78
2022/01/26 08:26:55;;;;;;;83.03;34.30;;;3.10;99.90;;;;;;5050255;28;20060;-78
2022/01/26 08:29:27;;;;;;;87.22;36.20;;;3.20;99.90;;;;;;5067029;28;20064;-77
2022/01/26 08:31:53;;;;;;;86.43;32.92;;;3.10;99.90;;;;;;5066942;28;20117;-78
2022/01/26 08:34:19;;;;;;;79.65;30.58;;;3.20;99.90;;;;;;5066829;28;20044;-78
2022/01/26 08:36:45;;;;;;;90.75;34.95;;;3.20;99.90;;;;;;5066654;28;20049;-78
2022/01/26 08:39:10;;;;;;;88.10;34.42;;;3.20;99.90;;;;;;5067216;28;20048;-78
2022/01/26 08:41:36;;;;;;;84.57;34.10;;;3.20;99.90;;;;;;5050027;28;20044;-78
2022/01/26 08:44:02;;;;;;;103.43;38.05;;;3.20;99.90;;;;;;5050502;28;20099;-78
2022/01/26 08:46:29;;;;;;;90.38;35.10;;;3.20;99.90;;;;;;5050310;28;20410;-78
2022/01/26 08:48:55;;;;;;;85.50;34.78;;;3.20;99.90;;;;;;5066446;28;20052;-77
2022/01/26 08:51:21;;;;;;;98.80;38.70;;;3.20;99.90;;;;;;5067053;28;20094;-78
2022/01/26 08:53:47;;;;;;;97.65;37.25;;;3.30;99.90;;;;;;5067340;28;20049;-78
2022/01/26 08:56:13;;;;;;;86.57;35.42;;;3.30;99.90;;;;;;5067379;28;20086;-77
2022/01/26 08:58:39;;;;;;;100.13;38.10;;;3.30;99.90;;;;;;5068029;28;20049;-78
2022/01/26 09:01:05;;;;;;;92.85;38.63;;;3.30;99.90;;;;;;5067429;28;20047;-78
2022/01/26 09:03:36;;;;;;;101.68;38.50;;;3.30;99.90;;;;;;5067625;28;20045;-78
2022/01/26 09:06:01;;;;;;;103.90;38.35;;;3.30;99.90;;;;;;5067354;28;20041;-78
2022/01/26 09:08:27;;;;;;;98.85;38.50;;;3.30;99.90;;;;;;5067933;28;20044;-78
2022/01/26 09:10:58;;;;;;;100.05;39.50;;;3.40;99.90;;;;;;5067635;28;20051;-78
2022/01/26 09:13:24;;;;;;;108.88;43.88;;;3.30;99.90;;;;;;5067033;28;20052;-78
2022/01/26 09:15:50;;;;;;;103.07;38.60;;;3.30;99.90;;;;;;5067329;28;20057;-78
2022/01/26 09:18:20;;;;;;;97.88;37.35;;;3.40;99.90;;;;;;5069858;28;20047;-77
2022/01/26 09:20:45;;;;;;;105.80;39.55;;;3.40;99.90;;;;;;5071580;28;20048;-78
2022/01/26 09:23:11;;;;;;;112.13;41.67;;;3.40;99.90;;;;;;5071259;28;20496;-78
2022/01/26 09:25:37;;;;;;;104.07;39.90;;;3.40;99.90;;;;;;5070690;28;20048;-78
2022/01/26 09:28:02;;;;;;;105.82;41.22;;;3.40;99.90;;;;;;5054368;28;20632;-78
2022/01/26 09:30:28;;;;;;;108.22;41.45;;;3.40;99.90;;;;;;5071057;28;20086;-78
2022/01/26 09:32:54;;;;;;;111.03;38.55;;;3.40;99.90;;;;;;5071117;28;20088;-77
2022/01/26 09:35:20;;;;;;;106.60;40.80;;;3.40;99.90;;;;;;5070948;28;20503;-78
2022/01/26 09:37:45;;;;;;;116.03;42.15;;;3.40;99.90;;;;;;5070956;28;20566;-78
2022/01/26 09:40:11;;;;;;;117.15;44.58;;;3.40;99.90;;;;;;5070840;28;20448;-78
2022/01/26 09:42:37;;;;;;;113.10;41.90;;;3.40;99.90;;;;;;5070253;28;20449;-78
2022/01/26 09:45:06;;;;;;;114.03;41.30;;;3.50;99.90;;;;;;5070839;28;20044;-78
2022/01/26 09:47:31;;;;;;;114.53;42.03;;;3.50;99.90;;;;;;5054094;28;20470;-78
2022/01/26 09:49:57;;;;;;;116.13;44.42;;;3.50;99.90;;;;;;5070846;28;20040;-78
2022/01/26 09:52:32;;;;;;;119.40;44.28;;;3.50;99.90;;;;;;5070028;28;20048;-78
2022/01/26 09:54:59;;;;;;;114.78;42.95;;;3.50;99.90;;;;;;5070167;28;20049;-78
2022/01/26 09:57:28;;;;;;;115.10;43.85;;;3.50;99.90;;;;;;5053758;28;20506;-78
2022/01/26 09:59:55;;;;;;;113.35;42.22;;;3.60;99.90;;;;;;5071306;28;20101;-78
2022/01/26 10:02:26;;;;;;;112.32;43.03;;;3.60;99.90;;;;;;5053995;28;20055;-78
2022/01/26 10:05:06;;;;;;;117.50;43.00;;;3.60;99.90;;;;;;5071432;28;20063;-78
2022/01/26 10:08:02;;;;;;;118.30;45.05;;;3.60;99.90;;;;;;5070458;28;20049;-78
2022/01/26 10:17:23;;;;;;;102.88;41.90;;;3.70;99.90;;;;;;5070289;28;20049;-78
2022/01/26 10:19:09;;;;;;;110.50;43.13;;;3.70;99.90;;;;;;5059454;28;20048;-78
2022/01/26 10:22:04;;;;;;;110.28;45.92;;;3.70;99.90;;;;;;5070274;28;20048;-78
2022/01/26 10:24:29;;;;;;;111.05;44.00;;;3.70;99.90;;;;;;5052770;28;20099;-78
2022/01/26 10:27:00;;;;;;;119.10;46.03;;;3.80;99.90;;;;;;5069817;28;20076;-78
2022/01/26 10:29:27;;;;;;;105.60;42.35;;;3.80;99.90;;;;;;5068882;28;20057;-78
2022/01/26 10:31:53;;;;;;;105.68;44.28;;;3.80;99.90;;;;;;5069881;28;21235;-78
2022/01/26 10:34:24;;;;;;;116.68;43.95;;;3.90;99.90;;;;;;5069214;28;20106;-78
2022/01/26 10:37:00;;;;;;;105.32;43.95;;;3.90;99.90;;;;;;5070787;28;20044;-78
2022/01/26 10:42:02;;;;;;;96.28;39.75;;;4.00;99.90;;;;;;5069526;28;20060;-78
2022/01/26 10:44:41;;;;;;;103.18;42.88;;;3.90;99.90;;;;;;5069624;28;20684;-78
2022/01/26 10:47:08;;;;;;;86.45;38.78;;;4.00;99.90;;;;;;5070701;28;20524;-77
2022/01/26 10:50:07;;;;;;;;;;;4.00;99.90;;;;;;5053256;28;20133;-78
2022/01/26 10:54:58;;;;;;;88.22;38.97;;;4.10;99.90;;;;;;5069354;28;20113;-78
2022/01/26 10:57:25;;;;;;;89.55;38.30;;;4.20;99.90;;;;;;5052890;28;20131;-77
2022/01/26 10:59:51;;;;;;;90.65;38.35;;;4.20;99.90;;;;;;5069332;28;20626;-78
2022/01/26 11:02:24;;;;;;;98.82;39.00;;;4.20;99.90;;;;;;5052454;28;20578;-78
2022/01/26 11:04:49;;;;;;;91.43;37.10;;;4.20;99.90;;;;;;5069215;28;20053;-77
2022/01/26 11:07:16;;;;;;;89.28;36.55;;;4.20;99.90;;;;;;5069193;28;20044;-78
2022/01/26 11:09:45;;;;;;;84.68;36.65;;;4.30;99.90;;;;;;5069025;28;20049;-78
2022/01/26 11:12:13;;;;;;;94.50;35.72;;;4.30;99.90;;;;;;5068696;28;20045;-78
2022/01/26 11:14:50;;;;;;;87.22;36.38;;;4.30;99.90;;;;;;5068563;28;20120;-78
2022/01/26 11:17:37;;;;;;;88.88;33.80;;;4.20;99.90;;;;;;5070050;28;20486;-78
2022/01/26 11:20:20;;;;;;;96.25;35.75;;;4.20;99.90;;;;;;5070151;28;20085;-78
2022/01/26 11:22:53;;;;;;;95.90;36.03;;;4.20;99.90;;;;;;5070162;28;20048;-78
2022/01/26 11:25:20;;;;;;;94.80;37.47;;;4.20;99.90;;;;;;5068858;28;20044;-78
2022/01/26 11:27:45;;;;;;;88.35;33.72;;;4.30;99.90;;;;;;5069468;28;20131;-78
2022/01/26 11:30:33;;;;;;;96.00;36.10;;;4.30;99.90;;;;;;5068539;28;20144;-78
2022/01/26 11:33:01;;;;;;;101.60;37.17;;;4.30;99.90;;;;;;5068430;28;20059;-78
2022/01/26 11:35:30;;;;;;;85.78;34.00;;;4.30;99.90;;;;;;5069512;28;20048;-78
2022/01/26 11:38:16;;;;;;;87.43;33.83;;;4.30;99.90;;;;;;5069059;28;20059;-78
2022/01/26 11:46:31;;;;;;;80.95;32.85;;;4.40;99.90;;;;;;5068093;28;20052;-77
2022/01/26 11:49:07;;;;;;;82.78;33.35;;;4.50;99.90;;;;;;5068673;28;20048;-78
2022/01/26 11:51:59;;;;;;;94.85;36.20;;;4.50;99.90;;;;;;5051393;28;20134;-78
2022/01/26 11:54:51;;;;;;;88.43;32.97;;;4.50;99.90;;;;;;5064576;28;20059;-78
2022/01/26 11:57:19;;;;;;;80.90;29.60;;;4.60;99.90;;;;;;5068223;28;20052;-78
2022/01/26 11:59:58;;;;;;;83.20;31.55;;;4.50;99.90;;;;;;5068390;28;20048;-78
2022/01/26 12:02:36;;;;;;;75.70;32.10;;;4.50;99.90;;;;;;5051363;28;20411;-77
2022/01/26 12:05:06;;;;;;;80.90;31.02;;;4.50;99.90;;;;;;5068502;28;20045;-78
2022/01/26 12:07:32;;;;;;;79.45;31.25;;;4.50;99.90;;;;;;5068270;28;20142;-77
2022/01/26 12:10:00;;;;;;;87.72;33.85;;;4.50;99.90;;;;;;5068295;28;20517;-78
2022/01/26 12:12:25;;;;;;;92.28;33.67;;;4.50;99.90;;;;;;5051322;28;20525;-77
2022/01/26 12:15:15;;;;;;;79.95;32.30;;;4.50;99.90;;;;;;5067593;28;20037;-77
2022/01/26 12:17:58;;;;;;;80.68;31.75;;;4.50;99.90;;;;;;5067913;28;20044;-77
2022/01/26 12:34:32;;;;;;;;;;;4.60;99.90;;;;;;5051947;28;20044;-77
2022/01/26 12:37:06;;;;;;;;;;;4.60;99.90;;;;;;5051692;28;19925;-77
2022/01/26 12:42:39;;;;;;;83.72;31.70;;;4.60;99.90;;;;;;5031641;28;20534;-77
2022/01/26 12:45:05;;;;;;;78.75;31.27;;;4.60;99.90;;;;;;5031072;28;20111;-78
2022/01/26 12:47:32;;;;;;;94.65;35.05;;;4.60;99.90;;;;;;5031080;28;20052;-77
2022/01/26 12:49:58;;;;;;;82.25;32.42;;;4.60;99.90;;;;;;5049313;28;20049;-77
2022/01/26 12:52:24;;;;;;;88.68;32.83;;;4.60;99.90;;;;;;5014102;28;20040;-77
2022/01/26 12:54:50;;;;;;;88.57;32.45;;;4.60;99.90;;;;;;5052528;28;20049;-77
2022/01/26 12:57:16;;;;;;;84.78;32.45;;;4.60;99.90;;;;;;5035119;28;20072;-77
2022/01/26 12:59:43;;;;;;;102.05;36.42;;;4.60;99.90;;;;;;5035120;28;20127;-78
2022/01/26 13:02:10;;;;;;;91.10;35.42;;;4.60;99.90;;;;;;5018455;28;20048;-78
2022/01/26 13:04:35;;;;;;;96.43;36.15;;;4.60;99.90;;;;;;5034951;28;20041;-78
2022/01/26 13:07:03;;;;;;;96.25;36.05;;;4.60;99.90;;;;;;5034580;28;20114;-78
2022/01/26 13:09:41;;;;;;;96.18;33.75;;;4.60;99.90;;;;;;5018389;28;20502;-78
2022/01/26 13:12:07;;;;;;;91.38;33.60;;;4.60;99.90;;;;;;5034518;28;20151;-77
2022/01/26 13:14:42;;;;;;;100.90;37.38;;;4.70;99.90;;;;;;5034538;28;20045;-78
2022/01/26 13:25:32;;;;;;;94.53;35.00;;;4.60;99.90;;;;;;5034702;28;20079;-78
2022/01/26 13:38:51;;;;;;;90.90;35.53;;;4.70;99.90;;;;;;5059354;28;20151;-77
2022/01/26 13:44:25;;;;;;;96.50;36.45;;;4.80;99.90;;;;;;5070842;28;20052;-77
2022/01/26 13:54:53;;;;;;;85.22;33.25;;;4.80;99.90;;;;;;5070707;28;20041;-77
2022/01/26 14:00:08;;;;;;;81.28;32.20;;;4.80;99.90;;;;;;5070488;28;20127;-76
2022/01/26 14:02:35;;;;;;;76.05;30.48;;;4.80;99.90;;;;;;5071833;28;20041;-77
2022/01/26 14:05:01;;;;;;;77.28;30.27;;;4.80;99.90;;;;;;5070024;28;20086;-77
2022/01/26 14:07:26;;;;;;;68.90;31.95;;;4.90;99.90;;;;;;5070487;28;20075;-77
2022/01/26 14:09:52;;;;;;;79.32;33.08;;;4.90;99.90;;;;;;5070057;28;20495;-77
2022/01/26 14:12:23;;;;;;;76.40;31.85;;;4.90;99.90;;;;;;5070316;28;20052;-77
2022/01/26 14:14:53;;;;;;;68.50;30.40;;;4.90;99.90;;;;;;5070005;28;20052;-77
2022/01/26 14:17:28;;;;;;;78.72;30.52;;;4.90;99.90;;;;;;5069770;28;20075;-77
2022/01/26 14:20:14;;;;;;;71.63;29.90;;;5.00;99.90;;;;;;5069969;28;20102;-77
2022/01/26 14:25:25;;;;;;;74.20;31.27;;;5.00;99.90;;;;;;5069945;28;20057;-77
2022/01/26 14:27:55;;;;;;;73.80;28.77;;;5.00;99.90;;;;;;5052745;28;20056;-77
2022/01/26 14:33:13;;;;;;;72.15;31.58;;;5.10;99.90;;;;;;5069354;28;20051;-77
2022/01/26 15:19:58;;;;;;;63.08;24.88;;;5.30;99.90;;;;;;5068888;28;20055;-77
2022/01/26 15:50:52;;;;;;;57.58;25.77;;;5.30;99.90;;;;;;5068678;28;20086;-77
2022/01/26 16:06:57;;;;;;;56.40;25.63;;;5.30;99.90;;;;;;5068523;28;20098;-77
2022/01/26 16:20:37;;;;;;;62.92;25.88;;;5.40;99.90;;;;;;5068109;28;20106;-77
2022/01/26 16:39:10;;;;;;;54.88;23.95;;;5.40;99.90;;;;;;5072124;28;20060;-77
2022/01/26 17:11:10;;;;;;;66.35;25.85;;;5.50;99.90;;;;;;5071697;28;20048;-77
2022/01/26 17:55:38;;;;;;;53.60;25.02;;;5.60;99.90;;;;;;5071079;28;20059;-77
2022/01/26 18:49:11;;;;;;;49.53;23.85;;;5.60;99.90;;;;;;5068411;28;20123;-77
2022/01/26 18:49:39;;;;;;;49.97;22.45;;;5.60;99.90;;;;;;5070128;28;20143;-77
2022/01/26 18:52:07;;;;;;;52.03;23.75;;;5.70;99.90;;;;;;5050196;28;20044;-77
2022/01/26 18:54:35;;;;;;;50.45;21.92;;;5.70;99.90;;;;;;5069893;28;20040;-77
2022/01/26 18:57:04;;;;;;;51.47;23.25;;;5.70;99.90;;;;;;5068329;28;20052;-77
2022/01/26 18:59:29;;;;;;;52.47;24.73;;;5.70;99.90;;;;;;5068547;28;20044;-77
2022/01/26 19:01:56;;;;;;;48.83;23.10;;;5.70;99.90;;;;;;5068793;28;20121;-77
2022/01/26 19:04:28;;;;;;;48.92;22.27;;;5.70;99.90;;;;;;5052744;28;20055;-77
2022/01/26 19:06:55;;;;;;;47.80;22.42;;;5.70;99.90;;;;;;5068725;28;20048;-77
2022/01/26 19:09:25;;;;;;;47.10;23.30;;;5.80;99.90;;;;;;5069412;28;20119;-77
2022/01/26 19:11:51;;;;;;;44.95;20.58;;;5.80;99.90;;;;;;5052245;28;20520;-77
2022/01/26 19:14:17;;;;;;;40.13;19.42;;;5.80;99.90;;;;;;5052311;28;20049;-77
2022/01/26 19:16:52;;;;;;;39.20;20.15;;;5.80;99.90;;;;;;5069168;28;20101;-77
2022/01/26 19:24:44;;;;;;;40.03;20.38;;;5.90;99.90;;;;;;5069072;28;20049;-77
2022/01/26 19:44:12;;;;;;;39.55;20.50;;;6.10;99.90;;;;;;5068632;28;20472;-77
2022/01/26 19:54:19;;;;;;;35.17;18.90;;;6.20;99.90;;;;;;5068555;28;20152;-77
2022/01/26 19:56:45;;;;;;;34.97;19.45;;;6.30;99.90;;;;;;5067857;28;20466;-77
2022/01/26 19:59:11;;;;;;;38.08;19.50;;;6.30;99.90;;;;;;5068716;28;20041;-77
2022/01/26 20:01:36;;;;;;;35.40;17.90;;;6.30;99.90;;;;;;5069409;28;20487;-77